sensor_id;sensor_type;location;lat;lon;timestamp;P1;durP1;ratioP1;P2;durP2;ratioP2
37157;SDS011;23050;51.776;22.638;2022-12-18T00:01:31;68.90;;;21.77;;
37157;SDS011;23050;51.776;22.638;2022-12-18T00:03:59;62.25;;;20.67;;
37157;SDS011;23050;51.776;22.638;2022-12-18T00:06:27;57.75;;;19.92;;
37157;SDS011;23050;51.776;22.638;2022-12-18T00:08:54;88.53;;;28.63;;
37157;SDS011;23050;51.776;22.638;2022-12-18T00:11:22;59.40;;;20.10;;
37157;SDS011;23050;51.776;22.638;2022-12-18T00:13:49;66.90;;;21.98;;
37157;SDS011;23050;51.776;22.638;2022-12-18T00:16:16;71.45;;;21.17;;
37157;SDS011;23050;51.776;22.638;2022-12-18T00:18:45;72.03;;;23.40;;
37157;SDS011;23050;51.776;22.638;2022-12-18T00:21:12;72.20;;;22.98;;
37157;SDS011;23050;51.776;22.638;2022-12-18T00:23:39;100.60;;;31.70;;
37157;SDS011;23050;51.776;22.638;2022-12-18T00:26:07;76.70;;;24.60;;
37157;SDS011;23050;51.776;22.638;2022-12-18T04:11:00;53.10;;;19.70;;
37157;SDS011;23050;51.776;22.638;2022-12-18T04:13:32;64.28;;;19.92;;
37157;SDS011;23050;51.776;22.638;2022-12-18T04:16:00;66.30;;;21.73;;
37157;SDS011;23050;51.776;22.638;2022-12-18T04:18:26;71.10;;;23.05;;
37157;SDS011;23050;51.776;22.638;2022-12-18T04:20:51;63.67;;;21.25;;
37157;SDS011;23050;51.776;22.638;2022-12-18T04:23:17;58.70;;;22.13;;
37157;SDS011;23050;51.776;22.638;2022-12-18T04:25:43;56.13;;;20.98;;
37157;SDS011;23050;51.776;22.638;2022-12-18T04:28:09;59.65;;;21.30;;
37157;SDS011;23050;51.776;22.638;2022-12-18T04:30:35;51.40;;;19.17;;
37157;SDS011;23050;51.776;22.638;2022-12-18T04:33:00;47.47;;;19.55;;
37157;SDS011;23050;51.776;22.638;2022-12-18T04:35:26;48.28;;;17.15;;
37157;SDS011;23050;51.776;22.638;2022-12-18T04:37:52;46.55;;;17.13;;
37157;SDS011;23050;51.776;22.638;2022-12-18T04:40:17;45.97;;;18.55;;
37157;SDS011;23050;51.776;22.638;2022-12-18T04:42:43;46.97;;;15.93;;
37157;SDS011;23050;51.776;22.638;2022-12-18T04:45:08;43.92;;;15.70;;
37157;SDS011;23050;51.776;22.638;2022-12-18T04:47:34;52.95;;;19.60;;
37157;SDS011;23050;51.776;22.638;2022-12-18T04:50:00;48.22;;;17.17;;
37157;SDS011;23050;51.776;22.638;2022-12-18T04:52:25;47.28;;;17.42;;
37157;SDS011;23050;51.776;22.638;2022-12-18T04:54:51;48.33;;;20.45;;
37157;SDS011;23050;51.776;22.638;2022-12-18T04:57:16;44.95;;;17.63;;
37157;SDS011;23050;51.776;22.638;2022-12-18T04:59:45;45.13;;;18.80;;
37157;SDS011;23050;51.776;22.638;2022-12-18T05:02:10;50.00;;;18.35;;
37157;SDS011;23050;51.776;22.638;2022-12-18T05:04:36;46.30;;;16.98;;
37157;SDS011;23050;51.776;22.638;2022-12-18T05:07:01;47.72;;;17.02;;
37157;SDS011;23050;51.776;22.638;2022-12-18T05:09:27;56.63;;;20.20;;
37157;SDS011;23050;51.776;22.638;2022-12-18T05:11:53;52.53;;;19.15;;
37157;SDS011;23050;51.776;22.638;2022-12-18T05:14:18;63.17;;;21.58;;
37157;SDS011;23050;51.776;22.638;2022-12-18T05:16:44;55.92;;;18.85;;
37157;SDS011;23050;51.776;22.638;2022-12-18T05:19:10;52.22;;;18.75;;
37157;SDS011;23050;51.776;22.638;2022-12-18T05:21:35;58.72;;;19.83;;
37157;SDS011;23050;51.776;22.638;2022-12-18T05:24:01;49.70;;;19.25;;
37157;SDS011;23050;51.776;22.638;2022-12-18T05:26:27;58.03;;;18.05;;
37157;SDS011;23050;51.776;22.638;2022-12-18T05:28:52;58.88;;;18.48;;
37157;SDS011;23050;51.776;22.638;2022-12-18T05:31:18;49.25;;;18.40;;
37157;SDS011;23050;51.776;22.638;2022-12-18T05:33:43;50.78;;;17.75;;
37157;SDS011;23050;51.776;22.638;2022-12-18T05:36:09;53.58;;;17.35;;
37157;SDS011;23050;51.776;22.638;2022-12-18T05:38:36;47.13;;;18.48;;
37157;SDS011;23050;51.776;22.638;2022-12-18T07:48:30;63.28;;;22.58;;
37157;SDS011;23050;51.776;22.638;2022-12-18T07:50:59;65.47;;;23.75;;
37157;SDS011;23050;51.776;22.638;2022-12-18T07:53:25;103.75;;;33.42;;
37157;SDS011;23050;51.776;22.638;2022-12-18T07:55:57;99.07;;;32.90;;
37157;SDS011;23050;51.776;22.638;2022-12-18T07:58:24;85.60;;;31.02;;
37157;SDS011;23050;51.776;22.638;2022-12-18T08:00:50;65.43;;;27.98;;
37157;SDS011;23050;51.776;22.638;2022-12-18T08:03:17;122.40;;;56.90;;
37157;SDS011;23050;51.776;22.638;2022-12-18T08:05:43;171.77;;;81.05;;
37157;SDS011;23050;51.776;22.638;2022-12-18T08:08:09;95.53;;;46.42;;
37157;SDS011;23050;51.776;22.638;2022-12-18T08:10:34;78.45;;;37.55;;
37157;SDS011;23050;51.776;22.638;2022-12-18T08:13:00;107.40;;;43.25;;
37157;SDS011;23050;51.776;22.638;2022-12-18T08:15:25;121.53;;;51.05;;
37157;SDS011;23050;51.776;22.638;2022-12-18T08:17:51;199.52;;;99.47;;
37157;SDS011;23050;51.776;22.638;2022-12-18T08:20:16;102.03;;;47.08;;
37157;SDS011;23050;51.776;22.638;2022-12-18T08:22:43;117.57;;;43.33;;
37157;SDS011;23050;51.776;22.638;2022-12-18T08:25:09;89.88;;;34.50;;
37157;SDS011;23050;51.776;22.638;2022-12-18T08:27:35;155.55;;;58.45;;
37157;SDS011;23050;51.776;22.638;2022-12-18T08:30:01;99.80;;;38.60;;
37157;SDS011;23050;51.776;22.638;2022-12-18T08:32:28;74.53;;;32.72;;
37157;SDS011;23050;51.776;22.638;2022-12-18T08:34:54;154.25;;;49.70;;
37157;SDS011;23050;51.776;22.638;2022-12-18T08:37:20;193.90;;;68.38;;
37157;SDS011;23050;51.776;22.638;2022-12-18T08:39:45;123.45;;;44.35;;
37157;SDS011;23050;51.776;22.638;2022-12-18T08:42:11;74.20;;;28.98;;
37157;SDS011;23050;51.776;22.638;2022-12-18T08:44:55;60.72;;;22.90;;
37157;SDS011;23050;51.776;22.638;2022-12-18T08:47:21;117.72;;;44.75;;
37157;SDS011;23050;51.776;22.638;2022-12-18T08:49:47;126.88;;;48.20;;
37157;SDS011;23050;51.776;22.638;2022-12-18T08:52:16;151.32;;;56.53;;
37157;SDS011;23050;51.776;22.638;2022-12-18T14:59:02;74.00;;;23.63;;
37157;SDS011;23050;51.776;22.638;2022-12-18T15:01:34;84.28;;;27.80;;
37157;SDS011;23050;51.776;22.638;2022-12-18T15:04:02;125.10;;;39.78;;
37157;SDS011;23050;51.776;22.638;2022-12-18T15:06:34;109.88;;;36.20;;
37157;SDS011;23050;51.776;22.638;2022-12-18T15:11:57;724.85;;;251.50;;
37157;SDS011;23050;51.776;22.638;2022-12-18T15:14:30;137.93;;;51.92;;
37157;SDS011;23050;51.776;22.638;2022-12-18T15:17:03;166.65;;;46.80;;
37157;SDS011;23050;51.776;22.638;2022-12-18T15:19:39;176.57;;;55.40;;
37157;SDS011;23050;51.776;22.638;2022-12-18T15:22:20;215.23;;;75.70;;
37157;SDS011;23050;51.776;22.638;2022-12-18T15:24:53;157.48;;;56.63;;
37157;SDS011;23050;51.776;22.638;2022-12-18T15:27:20;234.32;;;81.53;;
37157;SDS011;23050;51.776;22.638;2022-12-18T15:30:00;233.77;;;70.63;;
37157;SDS011;23050;51.776;22.638;2022-12-18T15:32:36;205.45;;;74.43;;
37157;SDS011;23050;51.776;22.638;2022-12-18T15:35:03;506.35;;;141.90;;
37157;SDS011;23050;51.776;22.638;2022-12-18T15:37:48;669.85;;;190.40;;
37157;SDS011;23050;51.776;22.638;2022-12-18T15:40:19;131.30;;;45.83;;
37157;SDS011;23050;51.776;22.638;2022-12-18T15:42:48;224.20;;;65.38;;
37157;SDS011;23050;51.776;22.638;2022-12-18T15:45:36;135.18;;;41.33;;
37157;SDS011;23050;51.776;22.638;2022-12-18T15:48:01;142.43;;;51.20;;
37157;SDS011;23050;51.776;22.638;2022-12-18T15:50:28;178.45;;;61.47;;
37157;SDS011;23050;51.776;22.638;2022-12-18T15:52:54;227.35;;;73.45;;
37157;SDS011;23050;51.776;22.638;2022-12-18T15:55:21;267.48;;;82.20;;
37157;SDS011;23050;51.776;22.638;2022-12-18T15:58:08;208.82;;;65.97;;
37157;SDS011;23050;51.776;22.638;2022-12-18T16:00:36;234.60;;;67.43;;
37157;SDS011;23050;51.776;22.638;2022-12-18T16:03:04;200.63;;;66.97;;
37157;SDS011;23050;51.776;22.638;2022-12-18T16:05:30;164.68;;;51.60;;
37157;SDS011;23050;51.776;22.638;2022-12-18T16:07:56;161.00;;;56.45;;
37157;SDS011;23050;51.776;22.638;2022-12-18T16:10:23;99.65;;;37.20;;
37157;SDS011;23050;51.776;22.638;2022-12-18T16:12:50;249.30;;;69.47;;
37157;SDS011;23050;51.776;22.638;2022-12-18T16:15:15;256.90;;;68.60;;
37157;SDS011;23050;51.776;22.638;2022-12-18T16:17:42;139.82;;;41.65;;
37157;SDS011;23050;51.776;22.638;2022-12-18T16:20:12;215.57;;;59.65;;
37157;SDS011;23050;51.776;22.638;2022-12-18T16:22:42;90.65;;;32.75;;
37157;SDS011;23050;51.776;22.638;2022-12-18T16:25:22;96.97;;;32.08;;
37157;SDS011;23050;51.776;22.638;2022-12-18T16:27:53;170.02;;;47.20;;
37157;SDS011;23050;51.776;22.638;2022-12-18T16:30:24;223.65;;;64.38;;
37157;SDS011;23050;51.776;22.638;2022-12-18T16:32:52;130.93;;;44.92;;
37157;SDS011;23050;51.776;22.638;2022-12-18T16:35:19;150.18;;;47.20;;
37157;SDS011;23050;51.776;22.638;2022-12-18T16:37:44;101.75;;;33.78;;
37157;SDS011;23050;51.776;22.638;2022-12-18T16:40:11;92.00;;;31.92;;
37157;SDS011;23050;51.776;22.638;2022-12-18T16:42:41;83.60;;;32.10;;
37157;SDS011;23050;51.776;22.638;2022-12-18T16:45:09;157.15;;;46.90;;
37157;SDS011;23050;51.776;22.638;2022-12-18T16:47:37;201.93;;;67.55;;
37157;SDS011;23050;51.776;22.638;2022-12-18T16:50:03;197.07;;;60.45;;
37157;SDS011;23050;51.776;22.638;2022-12-18T16:52:30;144.60;;;47.30;;
37157;SDS011;23050;51.776;22.638;2022-12-18T16:54:55;130.85;;;44.88;;
37157;SDS011;23050;51.776;22.638;2022-12-18T16:57:21;176.80;;;57.13;;
37157;SDS011;23050;51.776;22.638;2022-12-18T16:59:47;157.60;;;51.17;;
37157;SDS011;23050;51.776;22.638;2022-12-18T17:02:13;174.10;;;62.30;;
37157;SDS011;23050;51.776;22.638;2022-12-18T17:07:08;116.55;;;40.90;;
37157;SDS011;23050;51.776;22.638;2022-12-18T17:09:33;103.82;;;37.63;;
37157;SDS011;23050;51.776;22.638;2022-12-18T17:11:59;147.80;;;60.22;;
37157;SDS011;23050;51.776;22.638;2022-12-18T17:14:26;216.82;;;61.05;;
37157;SDS011;23050;51.776;22.638;2022-12-18T17:16:53;299.02;;;94.97;;
37157;SDS011;23050;51.776;22.638;2022-12-18T17:19:19;649.25;;;248.23;;
37157;SDS011;23050;51.776;22.638;2022-12-18T17:21:46;259.67;;;101.40;;
37157;SDS011;23050;51.776;22.638;2022-12-18T17:24:13;214.38;;;69.95;;
37157;SDS011;23050;51.776;22.638;2022-12-18T17:26:39;235.35;;;74.45;;
37157;SDS011;23050;51.776;22.638;2022-12-18T17:29:05;193.02;;;56.28;;
37157;SDS011;23050;51.776;22.638;2022-12-18T17:31:31;201.13;;;58.28;;
37157;SDS011;23050;51.776;22.638;2022-12-18T17:33:57;270.30;;;76.68;;
37157;SDS011;23050;51.776;22.638;2022-12-18T17:36:23;242.88;;;73.35;;
37157;SDS011;23050;51.776;22.638;2022-12-18T17:38:52;273.23;;;76.10;;
37157;SDS011;23050;51.776;22.638;2022-12-18T17:41:20;310.27;;;93.27;;
37157;SDS011;23050;51.776;22.638;2022-12-18T17:43:50;336.30;;;91.10;;
37157;SDS011;23050;51.776;22.638;2022-12-18T17:46:17;328.65;;;93.88;;
37157;SDS011;23050;51.776;22.638;2022-12-18T17:48:43;351.65;;;98.88;;
37157;SDS011;23050;51.776;22.638;2022-12-18T17:51:09;254.82;;;75.68;;
37157;SDS011;23050;51.776;22.638;2022-12-18T17:53:36;232.73;;;75.93;;
37157;SDS011;23050;51.776;22.638;2022-12-18T17:56:05;230.68;;;72.55;;
37157;SDS011;23050;51.776;22.638;2022-12-18T17:58:32;251.95;;;80.57;;
37157;SDS011;23050;51.776;22.638;2022-12-18T18:01:00;520.92;;;173.18;;
37157;SDS011;23050;51.776;22.638;2022-12-18T18:03:27;425.08;;;149.55;;
37157;SDS011;23050;51.776;22.638;2022-12-18T18:05:56;289.50;;;102.40;;
37157;SDS011;23050;51.776;22.638;2022-12-18T18:08:23;199.55;;;69.82;;
37157;SDS011;23050;51.776;22.638;2022-12-18T18:10:49;256.80;;;75.07;;
37157;SDS011;23050;51.776;22.638;2022-12-18T18:13:19;231.45;;;73.70;;
37157;SDS011;23050;51.776;22.638;2022-12-18T18:16:06;375.70;;;115.13;;
37157;SDS011;23050;51.776;22.638;2022-12-18T18:18:32;301.80;;;95.93;;
37157;SDS011;23050;51.776;22.638;2022-12-18T18:20:58;327.30;;;88.88;;
37157;SDS011;23050;51.776;22.638;2022-12-18T18:23:27;320.08;;;85.82;;
37157;SDS011;23050;51.776;22.638;2022-12-18T18:25:55;309.65;;;86.20;;
37157;SDS011;23050;51.776;22.638;2022-12-18T18:28:25;336.88;;;101.05;;
37157;SDS011;23050;51.776;22.638;2022-12-18T18:30:51;348.60;;;97.43;;
37157;SDS011;23050;51.776;22.638;2022-12-18T18:33:16;401.15;;;117.57;;
37157;SDS011;23050;51.776;22.638;2022-12-18T18:35:42;315.98;;;92.47;;
37157;SDS011;23050;51.776;22.638;2022-12-18T18:38:08;288.05;;;76.07;;
37157;SDS011;23050;51.776;22.638;2022-12-18T18:40:33;327.25;;;80.45;;
37157;SDS011;23050;51.776;22.638;2022-12-18T18:42:59;191.98;;;58.58;;
37157;SDS011;23050;51.776;22.638;2022-12-18T18:45:24;154.65;;;46.90;;
37157;SDS011;23050;51.776;22.638;2022-12-18T18:47:50;96.15;;;36.78;;
37157;SDS011;23050;51.776;22.638;2022-12-18T18:50:16;107.20;;;32.65;;
37157;SDS011;23050;51.776;22.638;2022-12-18T18:52:41;109.38;;;35.55;;
37157;SDS011;23050;51.776;22.638;2022-12-18T18:55:07;65.25;;;19.58;;
37157;SDS011;23050;51.776;22.638;2022-12-18T18:57:33;89.15;;;27.92;;
37157;SDS011;23050;51.776;22.638;2022-12-18T18:59:58;92.15;;;26.13;;
37157;SDS011;23050;51.776;22.638;2022-12-18T19:02:24;102.68;;;30.13;;
37157;SDS011;23050;51.776;22.638;2022-12-18T19:04:50;62.30;;;21.60;;
37157;SDS011;23050;51.776;22.638;2022-12-18T19:07:15;128.43;;;37.40;;
37157;SDS011;23050;51.776;22.638;2022-12-18T19:09:41;97.93;;;31.80;;
37157;SDS011;23050;51.776;22.638;2022-12-18T19:12:08;103.70;;;31.05;;
37157;SDS011;23050;51.776;22.638;2022-12-18T19:14:53;134.10;;;39.67;;
37157;SDS011;23050;51.776;22.638;2022-12-18T19:17:19;129.23;;;38.70;;
37157;SDS011;23050;51.776;22.638;2022-12-18T19:19:44;134.85;;;40.97;;
37157;SDS011;23050;51.776;22.638;2022-12-18T19:22:10;122.35;;;37.67;;
37157;SDS011;23050;51.776;22.638;2022-12-18T19:24:35;147.98;;;48.75;;
37157;SDS011;23050;51.776;22.638;2022-12-18T19:27:02;143.73;;;47.20;;
37157;SDS011;23050;51.776;22.638;2022-12-18T19:29:30;131.07;;;43.35;;
37157;SDS011;23050;51.776;22.638;2022-12-18T19:31:55;151.05;;;42.45;;
37157;SDS011;23050;51.776;22.638;2022-12-18T19:34:26;226.75;;;64.97;;
37157;SDS011;23050;51.776;22.638;2022-12-18T19:36:52;261.88;;;73.13;;
37157;SDS011;23050;51.776;22.638;2022-12-18T19:39:17;194.57;;;53.28;;
37157;SDS011;23050;51.776;22.638;2022-12-18T19:41:45;189.73;;;56.90;;
37157;SDS011;23050;51.776;22.638;2022-12-18T19:44:11;207.85;;;60.42;;
37157;SDS011;23050;51.776;22.638;2022-12-18T19:46:41;234.50;;;71.07;;
37157;SDS011;23050;51.776;22.638;2022-12-18T19:49:07;179.13;;;56.60;;
37157;SDS011;23050;51.776;22.638;2022-12-18T19:51:38;208.38;;;59.65;;
37157;SDS011;23050;51.776;22.638;2022-12-18T19:54:03;162.98;;;52.90;;
37157;SDS011;23050;51.776;22.638;2022-12-18T19:56:30;170.63;;;54.72;;
37157;SDS011;23050;51.776;22.638;2022-12-18T19:58:57;70.25;;;22.38;;
37157;SDS011;23050;51.776;22.638;2022-12-18T20:01:23;95.57;;;28.48;;
37157;SDS011;23050;51.776;22.638;2022-12-18T20:03:50;246.70;;;78.47;;
37157;SDS011;23050;51.776;22.638;2022-12-18T20:06:18;118.43;;;41.50;;
37157;SDS011;23050;51.776;22.638;2022-12-18T20:08:48;133.35;;;48.55;;
37157;SDS011;23050;51.776;22.638;2022-12-18T20:11:14;128.93;;;41.40;;
37157;SDS011;23050;51.776;22.638;2022-12-18T20:13:41;143.35;;;43.33;;
37157;SDS011;23050;51.776;22.638;2022-12-18T20:16:07;92.00;;;34.92;;
37157;SDS011;23050;51.776;22.638;2022-12-18T20:18:33;114.70;;;37.10;;
37157;SDS011;23050;51.776;22.638;2022-12-18T20:21:01;127.72;;;38.88;;
37157;SDS011;23050;51.776;22.638;2022-12-18T20:23:27;145.98;;;43.38;;
37157;SDS011;23050;51.776;22.638;2022-12-18T20:25:53;98.97;;;29.85;;
37157;SDS011;23050;51.776;22.638;2022-12-18T20:28:20;94.80;;;28.83;;
37157;SDS011;23050;51.776;22.638;2022-12-18T20:30:46;95.53;;;32.70;;
37157;SDS011;23050;51.776;22.638;2022-12-18T20:33:13;91.22;;;30.70;;
37157;SDS011;23050;51.776;22.638;2022-12-18T20:35:40;95.45;;;28.17;;
37157;SDS011;23050;51.776;22.638;2022-12-18T20:38:05;101.72;;;30.10;;
37157;SDS011;23050;51.776;22.638;2022-12-18T20:40:31;37.33;;;11.70;;
37157;SDS011;23050;51.776;22.638;2022-12-18T20:42:58;79.55;;;24.08;;
37157;SDS011;23050;51.776;22.638;2022-12-18T20:45:24;106.93;;;28.55;;
37157;SDS011;23050;51.776;22.638;2022-12-18T20:47:52;184.77;;;42.75;;
37157;SDS011;23050;51.776;22.638;2022-12-18T20:50:21;161.88;;;39.15;;
37157;SDS011;23050;51.776;22.638;2022-12-18T20:52:46;195.40;;;49.03;;
37157;SDS011;23050;51.776;22.638;2022-12-18T20:55:12;256.20;;;73.78;;
37157;SDS011;23050;51.776;22.638;2022-12-18T20:57:38;120.90;;;40.00;;
37157;SDS011;23050;51.776;22.638;2022-12-18T21:00:04;151.60;;;42.92;;
37157;SDS011;23050;51.776;22.638;2022-12-18T21:02:31;97.78;;;30.92;;
37157;SDS011;23050;51.776;22.638;2022-12-18T21:04:57;94.25;;;32.92;;
37157;SDS011;23050;51.776;22.638;2022-12-18T21:07:22;103.32;;;30.52;;
37157;SDS011;23050;51.776;22.638;2022-12-18T21:09:48;93.60;;;33.25;;
37157;SDS011;23050;51.776;22.638;2022-12-18T21:12:14;334.15;;;105.18;;
37157;SDS011;23050;51.776;22.638;2022-12-18T21:15:06;79.15;;;28.10;;
37157;SDS011;23050;51.776;22.638;2022-12-18T21:17:33;77.22;;;27.70;;
37157;SDS011;23050;51.776;22.638;2022-12-18T21:19:59;106.32;;;38.22;;
37157;SDS011;23050;51.776;22.638;2022-12-18T21:22:25;194.73;;;51.00;;
37157;SDS011;23050;51.776;22.638;2022-12-18T21:24:51;160.32;;;50.05;;
37157;SDS011;23050;51.776;22.638;2022-12-18T21:27:17;108.28;;;36.67;;
37157;SDS011;23050;51.776;22.638;2022-12-18T21:29:42;26.70;;;11.68;;
37157;SDS011;23050;51.776;22.638;2022-12-18T21:32:08;64.72;;;22.10;;
37157;SDS011;23050;51.776;22.638;2022-12-18T21:34:35;57.45;;;21.27;;
37157;SDS011;23050;51.776;22.638;2022-12-18T21:37:01;70.57;;;20.38;;
37157;SDS011;23050;51.776;22.638;2022-12-18T21:39:27;90.30;;;27.33;;
37157;SDS011;23050;51.776;22.638;2022-12-18T21:41:54;69.05;;;24.42;;
37157;SDS011;23050;51.776;22.638;2022-12-18T21:44:39;82.28;;;29.13;;
37157;SDS011;23050;51.776;22.638;2022-12-18T21:47:05;91.50;;;27.58;;
37157;SDS011;23050;51.776;22.638;2022-12-18T21:49:31;50.55;;;19.10;;
37157;SDS011;23050;51.776;22.638;2022-12-18T21:51:57;106.97;;;34.85;;
37157;SDS011;23050;51.776;22.638;2022-12-18T21:54:25;116.95;;;34.72;;
37157;SDS011;23050;51.776;22.638;2022-12-18T21:56:53;157.50;;;35.42;;
37157;SDS011;23050;51.776;22.638;2022-12-18T21:59:24;114.05;;;29.38;;
37157;SDS011;23050;51.776;22.638;2022-12-18T22:01:53;147.02;;;37.60;;
37157;SDS011;23050;51.776;22.638;2022-12-18T22:04:21;91.10;;;21.75;;
37157;SDS011;23050;51.776;22.638;2022-12-18T22:06:47;144.90;;;40.38;;
37157;SDS011;23050;51.776;22.638;2022-12-18T22:09:14;123.38;;;40.15;;
37157;SDS011;23050;51.776;22.638;2022-12-18T22:11:41;208.07;;;56.42;;
37157;SDS011;23050;51.776;22.638;2022-12-18T22:14:07;171.88;;;51.83;;
37157;SDS011;23050;51.776;22.638;2022-12-18T22:16:33;130.85;;;35.17;;
37157;SDS011;23050;51.776;22.638;2022-12-18T22:18:59;165.48;;;49.88;;
37157;SDS011;23050;51.776;22.638;2022-12-18T22:21:29;55.78;;;17.55;;
37157;SDS011;23050;51.776;22.638;2022-12-18T22:23:57;107.10;;;37.70;;
37157;SDS011;23050;51.776;22.638;2022-12-18T22:26:25;86.85;;;26.13;;
37157;SDS011;23050;51.776;22.638;2022-12-18T22:28:52;114.13;;;35.75;;
37157;SDS011;23050;51.776;22.638;2022-12-18T22:31:36;105.75;;;34.88;;
37157;SDS011;23050;51.776;22.638;2022-12-18T22:34:02;74.35;;;25.77;;
37157;SDS011;23050;51.776;22.638;2022-12-18T22:36:33;60.78;;;22.17;;
37157;SDS011;23050;51.776;22.638;2022-12-18T22:39:08;81.28;;;26.45;;
37157;SDS011;23050;51.776;22.638;2022-12-18T22:41:39;40.35;;;17.75;;
37157;SDS011;23050;51.776;22.638;2022-12-18T22:44:05;23.08;;;9.48;;
37157;SDS011;23050;51.776;22.638;2022-12-18T22:46:32;44.53;;;15.65;;
37157;SDS011;23050;51.776;22.638;2022-12-18T22:49:00;110.03;;;34.03;;
37157;SDS011;23050;51.776;22.638;2022-12-18T22:51:26;91.75;;;32.28;;
37157;SDS011;23050;51.776;22.638;2022-12-18T22:53:57;71.70;;;29.58;;
37157;SDS011;23050;51.776;22.638;2022-12-18T22:56:23;92.07;;;32.40;;
37157;SDS011;23050;51.776;22.638;2022-12-18T22:58:50;88.68;;;32.38;;
37157;SDS011;23050;51.776;22.638;2022-12-18T23:01:17;55.83;;;20.40;;
37157;SDS011;23050;51.776;22.638;2022-12-18T23:03:52;58.30;;;23.23;;
37157;SDS011;23050;51.776;22.638;2022-12-18T23:06:19;31.67;;;11.20;;
37157;SDS011;23050;51.776;22.638;2022-12-18T23:08:50;119.65;;;37.28;;
37157;SDS011;23050;51.776;22.638;2022-12-18T23:11:17;33.22;;;12.88;;
37157;SDS011;23050;51.776;22.638;2022-12-18T23:13:43;81.80;;;24.83;;
37157;SDS011;23050;51.776;22.638;2022-12-18T23:16:13;133.25;;;32.55;;
37157;SDS011;23050;51.776;22.638;2022-12-18T23:18:41;124.35;;;38.17;;
37157;SDS011;23050;51.776;22.638;2022-12-18T23:21:09;30.95;;;11.13;;
37157;SDS011;23050;51.776;22.638;2022-12-18T23:23:43;104.35;;;31.70;;
37157;SDS011;23050;51.776;22.638;2022-12-18T23:26:10;153.95;;;42.35;;
37157;SDS011;23050;51.776;22.638;2022-12-18T23:28:46;98.50;;;27.88;;
37157;SDS011;23050;51.776;22.638;2022-12-18T23:33:45;48.53;;;16.35;;
37157;SDS011;23050;51.776;22.638;2022-12-18T23:36:13;109.38;;;32.85;;
37157;SDS011;23050;51.776;22.638;2022-12-18T23:38:39;79.45;;;24.25;;
37157;SDS011;23050;51.776;22.638;2022-12-18T23:41:09;77.53;;;30.05;;
37157;SDS011;23050;51.776;22.638;2022-12-18T23:43:38;141.80;;;41.63;;
37157;SDS011;23050;51.776;22.638;2022-12-18T23:46:19;52.45;;;19.52;;
37157;SDS011;23050;51.776;22.638;2022-12-18T23:48:45;101.88;;;31.55;;
37157;SDS011;23050;51.776;22.638;2022-12-18T23:51:11;177.13;;;54.67;;
37157;SDS011;23050;51.776;22.638;2022-12-18T23:53:39;151.70;;;45.35;;
37157;SDS011;23050;51.776;22.638;2022-12-18T23:56:05;105.10;;;33.95;;
37157;SDS011;23050;51.776;22.638;2022-12-18T23:58:33;90.78;;;27.67;;
